createdAt,value
2019-06-27T00:01:40.543Z,78.67
2019-06-27T00:04:12.132Z,78.62
2019-06-27T00:06:44.038Z,78.63
2019-06-27T00:09:16.684Z,78.95
2019-06-27T00:11:48.283Z,79.12
2019-06-27T00:14:19.835Z,79.27
2019-06-27T00:16:53.025Z,79.18
2019-06-27T00:19:24.597Z,79.49
2019-06-27T00:21:56.232Z,79.73
2019-06-27T00:24:27.781Z,80.02
2019-06-27T00:26:59.381Z,79.67
2019-06-27T00:29:30.948Z,79.50
2019-06-27T00:32:02.534Z,79.75
2019-06-27T00:34:34.103Z,79.71
2019-06-27T00:37:05.685Z,80.03
2019-06-27T00:39:38.312Z,79.95
2019-06-27T00:42:09.926Z,80.16
2019-06-27T00:44:41.521Z,80.20
2019-06-27T00:47:13.082Z,80.25
2019-06-27T00:49:44.653Z,79.92
2019-06-27T00:52:16.200Z,79.93
2019-06-27T00:54:47.804Z,79.77
2019-06-27T00:57:19.430Z,80.06
2019-06-27T00:59:50.977Z,80.22
2019-06-27T01:02:22.600Z,80.13
2019-06-27T01:04:55.120Z,79.95
2019-06-27T01:07:26.651Z,80.11
2019-06-27T01:10:01.141Z,80.09
2019-06-27T01:12:31.497Z,80.23
2019-06-27T01:15:03.243Z,80.27
2019-06-27T01:17:34.769Z,80.15
2019-06-27T01:20:06.792Z,80.27
2019-06-27T01:22:38.467Z,80.36
2019-06-27T01:25:10.455Z,80.43
2019-06-27T01:27:42.029Z,80.78
2019-06-27T01:30:15.214Z,80.84
2019-06-27T01:32:46.827Z,80.80
2019-06-27T01:35:18.505Z,80.68
2019-06-27T01:37:50.236Z,80.65
2019-06-27T01:40:22.406Z,81.00
2019-06-27T01:42:53.988Z,80.50
2019-06-27T01:45:31.297Z,80.24
2019-06-27T01:48:02.869Z,80.74
2019-06-27T01:50:34.460Z,81.05
2019-06-27T01:53:07.122Z,80.78
2019-06-27T01:55:38.701Z,81.10
2019-06-27T01:58:10.280Z,81.54
2019-06-27T02:00:41.853Z,81.14
2019-06-27T02:03:13.460Z,81.15
2019-06-27T02:05:45.122Z,81.37
2019-06-27T02:08:17.795Z,81.60
2019-06-27T02:10:49.366Z,81.61
2019-06-27T02:13:20.952Z,81.70
2019-06-27T02:15:52.512Z,81.75
2019-06-27T02:18:24.136Z,81.40
2019-06-27T02:20:55.707Z,81.37
2019-06-27T02:23:27.276Z,81.89
2019-06-27T02:25:58.936Z,81.88
2019-06-27T02:28:30.494Z,81.80
2019-06-27T02:31:02.098Z,81.99
2019-06-27T02:33:33.669Z,81.79
2019-06-27T02:36:05.274Z,81.63
2019-06-27T02:38:36.844Z,81.77
2019-06-27T02:41:08.461Z,81.82
2019-06-27T02:43:40.019Z,81.77
2019-06-27T02:46:11.591Z,82.16
2019-06-27T02:48:43.160Z,81.91
2019-06-27T02:51:14.772Z,82.07
2019-06-27T02:53:46.331Z,82.25
2019-06-27T02:56:17.923Z,82.01
2019-06-27T02:58:49.493Z,82.41
2019-06-27T03:01:21.110Z,82.39
2019-06-27T03:03:52.736Z,82.63
2019-06-27T03:06:24.316Z,82.47
2019-06-27T03:08:55.885Z,82.39
2019-06-27T03:11:27.450Z,82.17
2019-06-27T03:13:59.082Z,82.08
2019-06-27T03:16:30.622Z,82.20
2019-06-27T03:19:02.241Z,82.40
2019-06-27T03:21:33.786Z,82.34
2019-06-27T03:24:05.392Z,82.17
2019-06-27T03:26:37.015Z,82.18
2019-06-27T03:29:08.575Z,82.42
2019-06-27T03:31:40.149Z,82.24
2019-06-27T03:34:11.721Z,81.96
2019-06-27T03:36:43.305Z,81.84
2019-06-27T03:39:14.936Z,81.38
2019-06-27T03:41:46.524Z,81.46
2019-06-27T03:44:18.117Z,81.98
2019-06-27T03:46:49.730Z,81.98
2019-06-27T03:49:22.388Z,81.94
2019-06-27T03:51:53.981Z,81.39
2019-06-27T03:54:26.628Z,81.62
2019-06-27T03:56:58.237Z,81.59
2019-06-27T03:59:29.812Z,81.90
2019-06-27T04:02:01.397Z,82.34
2019-06-27T04:04:33.025Z,82.42
2019-06-27T04:07:04.611Z,82.09
2019-06-27T04:09:36.193Z,81.73
2019-06-27T04:12:07.786Z,81.72
2019-06-27T04:14:39.374Z,81.70
2019-06-27T04:17:10.942Z,81.69
2019-06-27T04:19:42.528Z,81.67
2019-06-27T04:22:17.333Z,81.75
2019-06-27T04:24:47.413Z,81.38
2019-06-27T04:27:18.988Z,81.02
2019-06-27T04:29:50.629Z,80.76
2019-06-27T04:32:22.240Z,81.44
2019-06-27T04:34:53.791Z,81.08
2019-06-27T04:37:25.397Z,80.97
2019-06-27T04:39:57.060Z,80.82
2019-06-27T04:42:28.619Z,80.39
2019-06-27T04:45:00.263Z,80.61
2019-06-27T04:47:31.861Z,80.95
2019-06-27T04:50:03.473Z,80.63
2019-06-27T04:52:35.015Z,80.80
2019-06-27T04:55:06.853Z,80.79
2019-06-27T04:57:38.381Z,79.96
2019-06-27T05:00:10.154Z,79.22
2019-06-27T05:02:41.738Z,79.35
2019-06-27T05:05:13.307Z,79.47
2019-06-27T05:07:44.880Z,79.59
2019-06-27T05:10:16.467Z,78.80
2019-06-27T05:12:48.053Z,79.09
2019-06-27T05:15:19.631Z,78.81
2019-06-27T05:17:51.225Z,78.52
2019-06-27T05:20:22.804Z,78.27
2019-06-27T05:22:54.389Z,78.39
2019-06-27T05:25:29.428Z,77.38
2019-06-27T05:27:59.256Z,77.18
2019-06-27T05:30:30.827Z,77.31
2019-06-27T05:33:02.420Z,77.71
2019-06-27T05:35:34.046Z,76.70
2019-06-27T05:38:05.625Z,76.74
2019-06-27T05:40:37.167Z,75.87
2019-06-27T05:43:08.755Z,75.27
2019-06-27T05:45:40.329Z,73.58
2019-06-27T05:48:12.097Z,72.43
2019-06-27T05:50:43.677Z,70.67
2019-06-27T05:53:15.271Z,70.67
2019-06-27T05:55:46.886Z,69.66
2019-06-27T05:58:18.491Z,68.21
2019-06-27T06:00:50.075Z,67.55
2019-06-27T06:03:21.711Z,65.66
2019-06-27T06:05:53.266Z,64.33
2019-06-27T06:08:24.850Z,63.15
2019-06-27T06:10:56.438Z,63.43
2019-06-27T06:13:28.019Z,62.10
2019-06-27T06:16:01.146Z,63.35
2019-06-27T06:18:33.055Z,61.34
2019-06-27T06:21:04.664Z,62.23
2019-06-27T06:23:36.259Z,62.46
2019-06-27T06:26:07.880Z,60.11
2019-06-27T06:28:39.449Z,58.68
2019-06-27T06:31:11.056Z,61.00
2019-06-27T06:33:42.634Z,59.72
2019-06-27T06:36:14.207Z,59.34
2019-06-27T06:38:45.790Z,58.46
2019-06-27T06:41:17.372Z,56.30
2019-06-27T06:43:48.949Z,56.82
2019-06-27T06:46:20.656Z,54.73
2019-06-27T06:48:52.200Z,58.35
2019-06-27T06:51:23.800Z,55.73
2019-06-27T06:53:55.352Z,54.27
2019-06-27T06:56:26.945Z,54.74
2019-06-27T06:58:58.518Z,55.25
2019-06-27T07:01:30.123Z,53.54
2019-06-27T07:04:01.703Z,55.55
2019-06-27T07:06:33.281Z,55.86
2019-06-27T07:09:05.315Z,53.73
2019-06-27T07:11:36.892Z,55.01
2019-06-27T07:14:08.714Z,52.31
2019-06-27T07:16:40.299Z,53.77
2019-06-27T07:19:11.932Z,52.64
2019-06-27T07:21:43.514Z,53.19
2019-06-27T07:24:15.142Z,53.32
2019-06-27T07:26:46.725Z,53.62
2019-06-27T07:29:18.302Z,53.54
2019-06-27T07:31:49.905Z,53.74
2019-06-27T07:34:21.486Z,54.11
2019-06-27T07:36:53.065Z,54.33
2019-06-27T07:39:24.634Z,54.02
2019-06-27T07:41:56.194Z,53.80
2019-06-27T07:44:27.780Z,53.55
2019-06-27T07:46:59.352Z,54.44
2019-06-27T07:49:33.150Z,54.39
2019-06-27T07:52:04.323Z,54.46
2019-06-27T07:54:35.988Z,54.50
2019-06-27T07:57:07.555Z,54.10
2019-06-27T07:59:39.123Z,54.34
2019-06-27T08:02:10.693Z,54.13
2019-06-27T08:04:42.440Z,54.87
2019-06-27T08:07:14.031Z,53.92
2019-06-27T08:09:45.667Z,54.36
2019-06-27T08:12:17.244Z,55.27
2019-06-27T08:14:48.820Z,53.54
2019-06-27T08:17:20.441Z,54.40
2019-06-27T08:19:52.009Z,53.38
2019-06-27T08:22:23.584Z,54.33
2019-06-27T08:24:55.169Z,55.58
2019-06-27T08:27:26.778Z,53.00
2019-06-27T08:29:58.349Z,52.28
2019-06-27T08:32:29.991Z,52.71
2019-06-27T08:35:01.628Z,53.73
2019-06-27T08:37:33.188Z,52.88
2019-06-27T08:40:05.366Z,51.88
2019-06-27T08:42:36.984Z,52.70
2019-06-27T08:45:08.894Z,53.21
2019-06-27T08:47:40.474Z,53.68
2019-06-27T08:50:13.308Z,52.75
2019-06-27T08:52:45.000Z,51.67
2019-06-27T08:55:16.561Z,52.95
2019-06-27T08:57:48.153Z,52.81
2019-06-27T09:00:20.372Z,52.30
2019-06-27T09:02:52.291Z,52.85
2019-06-27T09:05:24.824Z,51.90
2019-06-27T09:07:56.407Z,52.30
2019-06-27T09:10:28.026Z,51.10
2019-06-27T09:12:59.636Z,51.34
2019-06-27T09:15:31.172Z,53.12
2019-06-27T09:18:02.762Z,52.19
2019-06-27T09:20:35.342Z,51.73
2019-06-27T09:23:06.928Z,51.60
2019-06-27T09:25:38.549Z,53.25
2019-06-27T09:28:10.160Z,52.93
2019-06-27T09:30:41.814Z,52.72
2019-06-27T09:33:13.337Z,54.69
2019-06-27T09:35:44.955Z,53.61
2019-06-27T09:38:16.498Z,53.17
2019-06-27T09:40:48.172Z,50.81
2019-06-27T09:43:19.759Z,53.34
2019-06-27T09:45:51.335Z,53.82
2019-06-27T09:48:23.015Z,54.22
2019-06-27T09:50:54.613Z,54.15
2019-06-27T09:53:27.223Z,52.55
2019-06-27T09:55:58.867Z,52.95
2019-06-27T09:58:30.430Z,49.51
2019-06-27T10:01:05.721Z,51.19
2019-06-27T10:03:35.332Z,53.18
2019-06-27T10:06:06.925Z,52.75
2019-06-27T10:08:38.580Z,52.32
2019-06-27T10:11:10.539Z,52.13
2019-06-27T10:13:42.103Z,49.83
2019-06-27T10:16:13.741Z,53.34
2019-06-27T10:18:45.323Z,51.73
2019-06-27T10:21:16.912Z,49.17
2019-06-27T10:23:48.692Z,49.12
2019-06-27T10:26:20.365Z,47.21
2019-06-27T10:28:51.962Z,47.64
2019-06-27T10:31:23.546Z,48.64
2019-06-27T10:33:55.383Z,49.30
2019-06-27T10:36:27.032Z,49.08
2019-06-27T10:38:58.890Z,47.63
2019-06-27T10:41:30.516Z,46.15
2019-06-27T10:44:02.082Z,49.31
2019-06-27T10:46:33.656Z,47.29
2019-06-27T10:49:05.554Z,53.29
2019-06-27T10:51:37.146Z,51.63
2019-06-27T10:54:08.809Z,50.56
2019-06-27T10:56:40.449Z,48.58
2019-06-27T10:59:12.254Z,51.18
2019-06-27T11:01:43.890Z,48.93
2019-06-27T11:04:15.476Z,49.75
2019-06-27T11:06:47.048Z,49.77
2019-06-27T11:09:18.642Z,52.10
2019-06-27T11:11:50.218Z,50.83
2019-06-27T11:14:22.243Z,51.42
2019-06-27T11:16:53.842Z,50.86
2019-06-27T11:19:25.492Z,51.41
2019-06-27T11:21:57.083Z,53.08
2019-06-27T11:24:28.728Z,53.90
2019-06-27T11:27:00.434Z,51.13
2019-06-27T11:29:32.023Z,51.18
2019-06-27T11:32:03.608Z,52.25
2019-06-27T11:34:35.395Z,52.22
2019-06-27T11:37:07.044Z,51.67
2019-06-27T11:39:38.701Z,46.20
2019-06-27T11:42:10.402Z,49.02
2019-06-27T11:44:42.004Z,47.81
2019-06-27T11:47:13.731Z,47.84
2019-06-27T11:49:45.368Z,47.28
2019-06-27T11:52:16.969Z,47.98
2019-06-27T11:54:48.578Z,49.15
2019-06-27T11:57:20.220Z,49.59
2019-06-27T11:59:51.871Z,50.25
2019-06-27T12:02:23.494Z,49.96
2019-06-27T12:04:55.108Z,50.95
2019-06-27T12:07:26.749Z,49.71
2019-06-27T12:09:58.371Z,51.49
2019-06-27T12:12:29.981Z,49.99
2019-06-27T12:15:01.651Z,49.77
2019-06-27T12:17:33.310Z,49.71
2019-06-27T12:20:05.968Z,50.74
2019-06-27T12:22:37.692Z,49.29
2019-06-27T12:25:12.011Z,49.91
2019-06-27T12:27:43.645Z,50.63
2019-06-27T12:30:15.544Z,49.82
2019-06-27T12:32:52.299Z,49.14
2019-06-27T12:35:20.454Z,48.98
2019-06-27T12:37:52.060Z,49.44
2019-06-27T12:40:24.614Z,49.81
2019-06-27T12:42:56.206Z,49.13
2019-06-27T12:45:28.883Z,48.30
2019-06-27T12:48:06.499Z,48.60
2019-06-27T12:50:33.888Z,49.14
2019-06-27T12:53:05.478Z,48.76
2019-06-27T12:55:37.132Z,49.14
2019-06-27T12:58:08.982Z,48.64
2019-06-27T13:00:40.622Z,48.84
2019-06-27T13:03:12.203Z,50.24
2019-06-27T13:05:43.853Z,50.58
2019-06-27T13:08:15.418Z,49.09
2019-06-27T13:10:47.090Z,50.28
2019-06-27T13:13:18.722Z,52.79
2019-06-27T13:15:50.303Z,50.74
2019-06-27T13:18:21.916Z,50.19
2019-06-27T13:20:58.343Z,49.75
2019-06-27T13:23:26.738Z,49.61
2019-06-27T13:25:58.308Z,50.42
2019-06-27T13:28:29.923Z,49.65
2019-06-27T13:31:01.565Z,50.94
2019-06-27T13:33:33.136Z,49.72
2019-06-27T13:36:04.739Z,50.34
2019-06-27T13:38:36.326Z,49.33
2019-06-27T13:41:08.207Z,49.87
2019-06-27T13:43:39.837Z,50.69
2019-06-27T13:46:11.514Z,48.96
2019-06-27T13:48:43.163Z,49.03
2019-06-27T13:51:14.795Z,47.98
2019-06-27T13:53:46.462Z,48.30
2019-06-27T13:56:18.058Z,48.99
2019-06-27T13:58:49.633Z,48.97
2019-06-27T14:01:21.228Z,48.45
2019-06-27T14:03:52.806Z,49.13
2019-06-27T14:06:24.436Z,48.93
2019-06-27T14:08:56.035Z,48.68
2019-06-27T14:11:27.626Z,48.70
2019-06-27T14:13:59.186Z,49.52
2019-06-27T14:16:30.851Z,49.83
2019-06-27T14:19:02.395Z,48.81
2019-06-27T14:21:34.008Z,49.19
2019-06-27T14:24:05.593Z,50.19
2019-06-27T14:26:37.340Z,50.78
2019-06-27T14:29:08.916Z,50.50
2019-06-27T14:31:40.520Z,50.89
2019-06-27T14:34:12.139Z,50.91
2019-06-27T14:36:44.769Z,51.23
2019-06-27T14:39:16.365Z,51.39
2019-06-27T14:41:47.940Z,52.09
2019-06-27T14:44:19.558Z,52.52
2019-06-27T14:46:51.199Z,53.14
2019-06-27T14:49:22.801Z,52.50
2019-06-27T14:51:55.463Z,52.47
2019-06-27T14:54:27.088Z,52.73
2019-06-27T14:56:58.661Z,53.16
2019-06-27T14:59:30.288Z,52.28
2019-06-27T15:02:01.871Z,52.47
2019-06-27T15:04:33.461Z,52.34
2019-06-27T15:07:05.134Z,51.81
2019-06-27T15:09:36.758Z,52.94
2019-06-27T15:12:08.341Z,53.02
2019-06-27T15:14:39.912Z,52.74
2019-06-27T15:17:11.505Z,52.35
2019-06-27T15:19:43.097Z,52.77
2019-06-27T15:22:14.667Z,53.11
2019-06-27T15:24:46.347Z,52.61
2019-06-27T15:27:17.947Z,52.53
2019-06-27T15:29:57.027Z,51.54
2019-06-27T15:32:28.643Z,52.73
2019-06-27T15:35:00.455Z,52.27
2019-06-27T15:37:32.618Z,51.73
2019-06-27T15:40:04.555Z,52.28
2019-06-27T15:42:36.150Z,51.64
2019-06-27T15:45:08.209Z,51.32
2019-06-27T15:47:40.777Z,51.58
2019-06-27T15:50:12.635Z,52.90
2019-06-27T15:52:44.256Z,52.97
2019-06-27T15:55:15.942Z,52.37
2019-06-27T15:57:47.512Z,51.79
2019-06-27T16:00:20.349Z,50.74
2019-06-27T16:02:51.929Z,50.37
2019-06-27T16:05:23.645Z,49.42
2019-06-27T16:07:55.336Z,50.54
2019-06-27T16:10:26.929Z,49.28
2019-06-27T16:13:02.480Z,50.40
2019-06-27T16:15:32.501Z,49.46
2019-06-27T16:18:04.480Z,49.85
2019-06-27T16:20:36.151Z,50.04
2019-06-27T16:23:07.706Z,49.04
2019-06-27T16:25:39.327Z,48.84
2019-06-27T16:28:10.909Z,49.58
2019-06-27T16:30:42.477Z,49.39
2019-06-27T16:33:14.172Z,48.69
2019-06-27T16:35:45.971Z,48.25
2019-06-27T16:38:17.592Z,50.15
2019-06-27T16:40:49.242Z,49.45
2019-06-27T16:43:22.125Z,49.04
2019-06-27T16:45:53.782Z,47.59
2019-06-27T16:48:25.407Z,46.40
2019-06-27T16:50:56.999Z,46.48
2019-06-27T16:53:28.661Z,47.05
2019-06-27T16:56:00.273Z,46.18
2019-06-27T16:58:32.315Z,46.07
2019-06-27T17:01:04.007Z,45.94
2019-06-27T17:03:35.654Z,45.60
2019-06-27T17:06:07.234Z,45.48
2019-06-27T17:08:38.933Z,45.31
2019-06-27T17:11:10.710Z,45.39
2019-06-27T17:13:42.426Z,45.17
2019-06-27T17:16:14.071Z,44.26
2019-06-27T17:18:46.833Z,43.55
2019-06-27T17:21:18.495Z,43.53
2019-06-27T17:23:50.035Z,42.56
2019-06-27T17:26:21.703Z,42.91
2019-06-27T17:28:53.335Z,42.88
2019-06-27T17:31:25.224Z,42.80
2019-06-27T17:33:56.824Z,43.72
2019-06-27T17:36:28.571Z,43.05
2019-06-27T17:39:00.268Z,43.61
2019-06-27T17:41:31.982Z,44.70
2019-06-27T17:44:03.573Z,43.69
2019-06-27T17:46:35.308Z,43.65
2019-06-27T17:49:06.917Z,44.07
2019-06-27T17:51:38.696Z,43.68
2019-06-27T17:54:10.276Z,44.42
2019-06-27T17:56:41.915Z,44.27
2019-06-27T17:59:13.520Z,44.41
2019-06-27T18:01:45.242Z,44.45
2019-06-27T18:04:16.976Z,44.97
2019-06-27T18:06:48.716Z,44.73
2019-06-27T18:09:20.392Z,44.73
2019-06-27T18:11:52.050Z,45.16
2019-06-27T18:14:24.093Z,45.13
2019-06-27T18:16:56.796Z,44.90
2019-06-27T18:19:28.415Z,45.51
2019-06-27T18:22:00.012Z,44.92
2019-06-27T18:24:32.618Z,44.99
2019-06-27T18:27:04.207Z,45.03
2019-06-27T18:29:35.939Z,44.39
2019-06-27T18:32:07.552Z,43.40
2019-06-27T18:34:39.238Z,42.26
2019-06-27T18:37:10.831Z,41.69
2019-06-27T18:39:42.435Z,41.89
2019-06-27T18:42:14.015Z,42.73
2019-06-27T18:44:45.603Z,43.84
2019-06-27T18:47:17.217Z,42.34
2019-06-27T18:49:48.867Z,42.77
2019-06-27T18:52:20.504Z,42.79
2019-06-27T18:54:52.175Z,42.58
2019-06-27T18:57:23.845Z,42.36
2019-06-27T18:59:55.482Z,42.22
2019-06-27T19:02:27.115Z,42.70
2019-06-27T19:04:58.703Z,43.00
2019-06-27T19:07:44.458Z,43.38
2019-06-27T19:10:04.328Z,43.56
2019-06-27T19:12:35.966Z,43.74
2019-06-27T19:15:08.005Z,44.42
2019-06-27T19:17:39.581Z,44.17
2019-06-27T19:20:30.310Z,44.11
2019-06-27T19:23:30.040Z,44.16
2019-06-27T19:26:02.221Z,44.64
2019-06-27T19:28:33.818Z,45.04
2019-06-27T19:31:05.444Z,45.43
2019-06-27T19:33:37.052Z,45.56
2019-06-27T19:36:08.723Z,45.84
2019-06-27T19:38:40.436Z,45.85
2019-06-27T19:41:12.023Z,46.98
2019-06-27T19:43:43.629Z,48.66
2019-06-27T19:46:15.246Z,49.22
2019-06-27T19:48:46.926Z,48.62
2019-06-27T19:51:18.514Z,48.98
2019-06-27T19:53:50.209Z,49.19
2019-06-27T19:56:22.395Z,47.72
2019-06-27T19:58:54.017Z,49.02
2019-06-27T20:01:25.624Z,49.20
2019-06-27T20:03:57.211Z,48.05
2019-06-27T20:06:28.784Z,47.85
2019-06-27T20:09:00.433Z,46.69
2019-06-27T20:11:33.693Z,44.64
2019-06-27T20:14:05.312Z,44.31
2019-06-27T20:16:36.963Z,45.26
2019-06-27T20:19:08.550Z,44.00
2019-06-27T20:21:40.183Z,42.69
2019-06-27T20:24:11.800Z,42.42
2019-06-27T20:26:43.382Z,42.42
2019-06-27T20:29:15.048Z,42.05
2019-06-27T20:31:46.674Z,42.43
2019-06-27T20:34:18.327Z,41.72
2019-06-27T20:36:49.959Z,42.12
2019-06-27T20:39:21.589Z,41.39
2019-06-27T20:41:53.261Z,41.09
2019-06-27T20:44:26.944Z,42.00
2019-06-27T20:46:58.558Z,41.35
2019-06-27T20:49:30.162Z,44.26
2019-06-27T20:52:01.759Z,44.83
2019-06-27T20:54:33.392Z,45.80
2019-06-27T20:57:04.972Z,49.29
2019-06-27T20:59:36.569Z,50.40
2019-06-27T21:02:08.177Z,50.54
2019-06-27T21:04:39.764Z,49.18
2019-06-27T21:07:11.321Z,50.86
2019-06-27T21:09:42.953Z,50.64
2019-06-27T21:12:15.660Z,52.74
2019-06-27T21:14:47.276Z,53.72
2019-06-27T21:17:18.897Z,54.96
2019-06-27T21:19:50.493Z,53.73
2019-06-27T21:22:22.061Z,54.51
2019-06-27T21:24:53.611Z,55.76
2019-06-27T21:27:25.389Z,55.78
2019-06-27T21:29:56.954Z,56.56
2019-06-27T21:32:31.894Z,57.35
2019-06-27T21:35:01.866Z,57.17
2019-06-27T21:37:33.477Z,57.95
2019-06-27T21:40:05.540Z,57.56
2019-06-27T21:42:37.142Z,57.54
2019-06-27T21:45:09.024Z,58.21
2019-06-27T21:47:40.599Z,58.65
2019-06-27T21:50:12.850Z,59.57
2019-06-27T21:52:44.445Z,59.55
2019-06-27T21:55:16.327Z,57.22
2019-06-27T21:57:47.925Z,56.64
2019-06-27T22:00:20.638Z,57.23
2019-06-27T22:02:53.831Z,58.25
2019-06-27T22:05:25.417Z,59.26
2019-06-27T22:07:57.001Z,59.35
2019-06-27T22:10:28.586Z,61.04
2019-06-27T22:13:00.312Z,60.75
2019-06-27T22:15:31.954Z,60.79
2019-06-27T22:18:03.602Z,61.38
2019-06-27T22:20:35.205Z,61.58
2019-06-27T22:23:06.802Z,61.01
2019-06-27T22:25:40.889Z,62.43
2019-06-27T22:28:12.675Z,62.08
2019-06-27T22:30:44.293Z,62.80
2019-06-27T22:33:15.874Z,62.92
2019-06-27T22:35:47.444Z,62.72
2019-06-27T22:38:36.531Z,61.50
2019-06-27T22:41:25.955Z,62.95
2019-06-27T22:44:16.133Z,63.46
2019-06-27T22:47:05.324Z,63.13
2019-06-27T22:49:36.367Z,63.28
2019-06-27T22:52:45.579Z,64.65
2019-06-27T22:55:22.119Z,63.74
2019-06-27T22:57:53.676Z,63.85
2019-06-27T23:00:25.361Z,64.70
2019-06-27T23:02:56.945Z,65.26
2019-06-27T23:05:28.546Z,64.69
2019-06-27T23:08:00.124Z,65.18
2019-06-27T23:10:31.698Z,65.72
2019-06-27T23:13:03.249Z,66.13
2019-06-27T23:15:34.860Z,66.56
2019-06-27T23:18:06.619Z,66.47
2019-06-27T23:20:38.199Z,67.03
2019-06-27T23:23:09.803Z,66.47
2019-06-27T23:25:41.386Z,66.79
2019-06-27T23:28:12.961Z,66.88
2019-06-27T23:30:44.511Z,66.83
2019-06-27T23:33:16.103Z,66.73
2019-06-27T23:35:47.683Z,66.68
2019-06-27T23:38:19.254Z,67.39
2019-06-27T23:40:50.833Z,66.70
2019-06-27T23:43:23.476Z,68.16
2019-06-27T23:45:55.043Z,67.78
2019-06-27T23:48:26.607Z,68.16
2019-06-27T23:50:58.185Z,68.87
2019-06-27T23:53:29.771Z,69.63
2019-06-27T23:56:01.384Z,69.46
2019-06-27T23:58:32.958Z,69.60
